createdAt,value
2019-03-23T00:02:25.626Z,16.10
2019-03-23T00:04:54.874Z,16.02
2019-03-23T00:07:31.145Z,16.02
2019-03-23T00:10:00.388Z,15.68
2019-03-23T00:12:29.762Z,16.82
2019-03-23T00:15:06.137Z,16.35
2019-03-23T00:17:35.371Z,16.90
2019-03-23T00:20:05.620Z,16.12
2019-03-23T00:22:41.873Z,15.63
2019-03-23T00:25:11.121Z,16.57
2019-03-23T00:27:52.757Z,16.85
2019-03-23T00:30:22.072Z,16.05
2019-03-23T00:32:51.352Z,15.70
2019-03-23T00:35:27.189Z,16.65
2019-03-23T00:37:56.450Z,15.73
2019-03-23T00:40:39.474Z,15.65
2019-03-23T00:43:08.752Z,16.05
2019-03-23T00:45:50.541Z,17.17
2019-03-23T00:48:26.500Z,16.10
2019-03-23T00:51:02.630Z,16.10
2019-03-23T00:53:31.915Z,15.95
2019-03-23T00:56:01.177Z,15.72
2019-03-23T00:58:36.644Z,15.80
2019-03-23T01:01:06.004Z,15.10
2019-03-23T01:03:35.255Z,16.57
2019-03-23T01:06:11.231Z,14.87
2019-03-23T01:08:40.581Z,15.60
2019-03-23T01:11:09.873Z,15.43
2019-03-23T01:13:46.110Z,15.32
2019-03-23T01:16:15.343Z,14.98
2019-03-23T01:18:44.657Z,15.95
2019-03-23T01:21:20.713Z,16.48
2019-03-23T01:23:49.981Z,16.52
2019-03-23T01:26:19.273Z,15.53
2019-03-23T01:28:55.400Z,15.78
2019-03-23T01:31:24.625Z,15.78
2019-03-23T01:33:53.902Z,15.93
2019-03-23T01:36:29.301Z,15.85
2019-03-23T01:38:58.587Z,17.30
2019-03-23T01:41:40.504Z,16.27
2019-03-23T01:44:09.768Z,16.23
2019-03-23T01:46:52.463Z,15.60
2019-03-23T01:49:28.607Z,15.32
2019-03-23T01:52:05.521Z,15.05
2019-03-23T01:54:34.809Z,14.47
2019-03-23T01:57:04.117Z,14.63
2019-03-23T01:59:40.200Z,13.95
2019-03-23T02:02:09.441Z,14.30
2019-03-23T02:04:38.691Z,14.20
2019-03-23T02:07:14.432Z,13.37
2019-03-23T02:09:43.697Z,13.38
2019-03-23T02:12:13.072Z,13.18
2019-03-23T02:14:48.408Z,12.47
2019-03-23T02:17:17.740Z,12.25
2019-03-23T02:19:47.042Z,13.58
2019-03-23T02:22:23.207Z,13.17
2019-03-23T02:24:52.458Z,12.85
2019-03-23T02:27:21.731Z,12.80
2019-03-23T02:29:57.567Z,13.60
2019-03-23T02:32:26.798Z,13.60
2019-03-23T02:34:56.917Z,13.50
2019-03-23T02:37:32.520Z,13.80
2019-03-23T02:40:01.732Z,13.18
2019-03-23T02:42:44.730Z,12.90
2019-03-23T02:45:14.251Z,14.00
2019-03-23T02:47:56.679Z,13.53
2019-03-23T02:50:32.933Z,13.88
2019-03-23T02:53:08.518Z,13.50
2019-03-23T02:55:37.777Z,13.48
2019-03-23T02:58:07.008Z,13.20
2019-03-23T03:00:43.306Z,12.88
2019-03-23T03:03:12.568Z,14.05
2019-03-23T03:05:41.786Z,13.25
2019-03-23T03:08:17.640Z,13.13
2019-03-23T03:10:46.901Z,13.00
2019-03-23T03:13:16.146Z,13.43
2019-03-23T03:15:52.033Z,13.53
2019-03-23T03:18:21.304Z,13.33
2019-03-23T03:20:50.662Z,13.53
2019-03-23T03:23:26.367Z,12.90
2019-03-23T03:25:55.696Z,13.53
2019-03-23T03:28:24.969Z,13.13
2019-03-23T03:31:00.723Z,13.38
2019-03-23T03:33:29.932Z,13.48
2019-03-23T03:35:59.209Z,12.90
2019-03-23T03:38:35.321Z,12.77
2019-03-23T03:41:04.600Z,12.98
2019-03-23T03:43:46.735Z,12.55
2019-03-23T03:46:15.979Z,12.20
2019-03-23T03:49:11.784Z,13.20
2019-03-23T03:51:36.399Z,12.00
2019-03-23T03:54:12.452Z,12.50
2019-03-23T03:56:41.669Z,13.20
2019-03-23T03:59:10.883Z,12.75
2019-03-23T04:01:46.657Z,13.03
2019-03-23T04:04:15.898Z,12.93
2019-03-23T04:06:45.145Z,12.75
2019-03-23T04:09:21.281Z,12.75
2019-03-23T04:11:50.563Z,13.00
2019-03-23T04:14:19.890Z,12.47
2019-03-23T04:16:55.350Z,13.40
2019-03-23T04:19:24.639Z,12.05
2019-03-23T04:21:53.873Z,12.25
2019-03-23T04:24:30.694Z,12.55
2019-03-23T04:26:59.997Z,12.45
2019-03-23T04:29:29.351Z,12.88
2019-03-23T04:32:05.767Z,12.83
2019-03-23T04:34:35.003Z,12.82
2019-03-23T04:37:04.337Z,11.85
2019-03-23T04:39:40.017Z,11.90
2019-03-23T04:42:09.309Z,12.60
2019-03-23T04:44:52.508Z,12.82
2019-03-23T04:47:21.806Z,13.25
2019-03-23T04:50:04.030Z,12.53
2019-03-23T04:52:39.876Z,13.60
2019-03-23T04:55:17.889Z,12.80
2019-03-23T04:57:47.149Z,12.05
2019-03-23T05:00:16.914Z,12.55
2019-03-23T05:02:53.147Z,12.53
2019-03-23T05:05:22.374Z,11.90
2019-03-23T05:07:51.678Z,13.08
2019-03-23T05:10:27.903Z,12.60
2019-03-23T05:12:57.153Z,12.28
2019-03-23T05:15:26.395Z,12.65
2019-03-23T05:18:01.773Z,12.50
2019-03-23T05:20:31.992Z,12.80
2019-03-23T05:23:01.354Z,12.53
2019-03-23T05:25:36.851Z,12.70
2019-03-23T05:28:06.120Z,11.80
2019-03-23T05:30:35.338Z,11.85
2019-03-23T05:33:11.121Z,12.37
2019-03-23T05:35:40.396Z,12.50
2019-03-23T05:38:09.641Z,11.65
2019-03-23T05:40:45.813Z,11.65
2019-03-23T05:43:15.043Z,12.30
2019-03-23T05:45:57.252Z,12.47
2019-03-23T05:48:32.696Z,11.75
2019-03-23T05:51:14.792Z,11.95
2019-03-23T05:53:44.296Z,11.95
2019-03-23T05:56:13.515Z,12.73
2019-03-23T05:58:49.329Z,11.68
2019-03-23T06:01:18.674Z,11.30
2019-03-23T06:03:47.902Z,11.08
2019-03-23T06:06:24.068Z,11.73
2019-03-23T06:08:55.388Z,12.50
2019-03-23T06:11:24.403Z,11.40
2019-03-23T06:13:59.868Z,11.17
2019-03-23T06:16:29.145Z,11.80
2019-03-23T06:18:59.235Z,11.57
2019-03-23T06:21:34.580Z,11.90
2019-03-23T06:24:03.919Z,11.85
2019-03-23T06:26:33.191Z,11.47
2019-03-23T06:29:08.692Z,11.70
2019-03-23T06:31:37.945Z,11.53
2019-03-23T06:34:07.221Z,11.50
2019-03-23T06:36:43.279Z,12.25
2019-03-23T06:39:12.563Z,11.73
2019-03-23T06:41:41.928Z,12.53
2019-03-23T06:44:18.471Z,12.03
2019-03-23T06:46:54.127Z,12.28
2019-03-23T06:49:38.384Z,12.58
2019-03-23T06:52:14.315Z,12.37
2019-03-23T06:54:50.448Z,12.58
2019-03-23T06:57:19.705Z,12.73
2019-03-23T06:59:49.009Z,12.57
2019-03-23T07:02:25.246Z,13.00
2019-03-23T07:04:54.519Z,13.08
2019-03-23T07:07:24.914Z,12.70
2019-03-23T07:10:03.699Z,13.05
2019-03-23T07:12:32.989Z,12.68
2019-03-23T07:15:02.256Z,12.70
2019-03-23T07:17:41.101Z,12.70
2019-03-23T07:20:11.188Z,11.67
2019-03-23T07:22:41.773Z,12.73
2019-03-23T07:25:23.013Z,12.45
2019-03-23T07:27:52.202Z,11.73
2019-03-23T07:30:21.596Z,11.38
2019-03-23T07:32:57.718Z,12.47
2019-03-23T07:35:26.928Z,11.33
2019-03-23T07:37:56.172Z,12.10
2019-03-23T07:40:33.316Z,12.50
2019-03-23T07:43:02.577Z,12.13
2019-03-23T07:45:32.055Z,12.30
2019-03-23T07:48:14.531Z,12.35
2019-03-23T07:50:50.505Z,12.28
2019-03-23T07:53:38.937Z,12.03
2019-03-23T07:56:08.213Z,11.75
2019-03-23T07:58:37.601Z,12.35
2019-03-23T08:01:14.077Z,12.78
2019-03-23T08:03:43.408Z,12.05
2019-03-23T08:06:12.676Z,12.80
2019-03-23T08:08:48.067Z,12.75
2019-03-23T08:11:17.384Z,12.55
2019-03-23T08:13:46.729Z,13.10
2019-03-23T08:16:22.395Z,13.72
2019-03-23T08:18:51.627Z,13.03
2019-03-23T08:21:20.889Z,14.43
2019-03-23T08:23:56.371Z,14.40
2019-03-23T08:26:25.559Z,13.43
2019-03-23T08:28:54.799Z,14.23
2019-03-23T08:31:30.493Z,13.25
2019-03-23T08:33:59.715Z,14.00
2019-03-23T08:36:28.952Z,13.78
2019-03-23T08:39:05.181Z,14.55
2019-03-23T08:41:34.435Z,13.90
2019-03-23T08:44:03.684Z,14.07
2019-03-23T08:46:40.264Z,13.32
2019-03-23T08:49:16.212Z,13.88
2019-03-23T08:51:58.399Z,13.43
2019-03-23T08:54:34.527Z,12.97
2019-03-23T08:57:10.681Z,13.23
2019-03-23T08:59:39.888Z,13.00
2019-03-23T09:02:09.087Z,13.20
2019-03-23T09:04:45.134Z,12.50
2019-03-23T09:07:14.375Z,12.03
2019-03-23T09:09:43.584Z,13.08
2019-03-23T09:12:19.770Z,12.63
2019-03-23T09:14:49.043Z,12.70
2019-03-23T09:17:18.265Z,12.90
2019-03-23T09:19:54.319Z,11.97
2019-03-23T09:22:23.591Z,12.15
2019-03-23T09:24:57.026Z,11.95
2019-03-23T09:30:02.865Z,11.70
2019-03-23T09:32:32.449Z,11.53
2019-03-23T09:35:08.728Z,12.05
2019-03-23T09:37:38.450Z,11.30
2019-03-23T09:40:11.109Z,11.12
2019-03-23T09:42:45.579Z,11.63
2019-03-23T09:45:15.543Z,10.98
2019-03-23T09:47:44.810Z,11.12
2019-03-23T09:50:27.633Z,10.78
2019-03-23T09:53:03.006Z,11.22
2019-03-23T09:55:39.020Z,11.22
2019-03-23T09:58:08.265Z,11.15
2019-03-23T10:00:37.518Z,11.25
2019-03-23T10:03:13.802Z,11.33
2019-03-23T10:05:43.079Z,11.38
2019-03-23T10:08:12.351Z,10.85
2019-03-23T10:10:47.810Z,10.60
2019-03-23T10:13:17.079Z,10.40
2019-03-23T10:15:46.350Z,11.10
2019-03-23T10:18:22.484Z,10.28
2019-03-23T10:20:51.700Z,10.88
2019-03-23T10:23:20.948Z,10.43
2019-03-23T10:25:57.161Z,10.50
2019-03-23T10:28:26.436Z,9.95
2019-03-23T10:30:55.735Z,10.43
2019-03-23T10:33:31.179Z,9.68
2019-03-23T10:36:00.460Z,9.98
2019-03-23T10:38:29.687Z,10.13
2019-03-23T10:41:05.193Z,10.05
2019-03-23T10:43:34.411Z,9.43
2019-03-23T10:46:03.656Z,9.78
2019-03-23T10:48:39.781Z,9.83
2019-03-23T10:51:28.377Z,9.63
2019-03-23T10:54:04.159Z,9.25
2019-03-23T10:56:33.484Z,9.23
2019-03-23T10:59:02.787Z,8.95
2019-03-23T11:01:38.365Z,9.63
2019-03-23T11:04:07.563Z,8.70
2019-03-23T11:06:36.767Z,9.57
2019-03-23T11:09:20.376Z,9.00
2019-03-23T11:11:49.593Z,10.57
2019-03-23T11:14:18.798Z,9.83
2019-03-23T11:16:54.788Z,9.93
2019-03-23T11:19:23.994Z,9.95
2019-03-23T11:21:53.361Z,10.73
2019-03-23T11:24:29.716Z,10.40
2019-03-23T11:26:58.912Z,11.00
2019-03-23T11:29:28.235Z,11.22
2019-03-23T11:32:03.936Z,10.05
2019-03-23T11:34:33.174Z,10.88
2019-03-23T11:37:02.425Z,11.22
2019-03-23T11:39:37.737Z,11.65
2019-03-23T11:42:08.526Z,11.30
2019-03-23T11:44:40.328Z,11.35
2019-03-23T11:47:16.722Z,11.43
2019-03-23T11:49:46.165Z,11.30
2019-03-23T11:52:34.344Z,11.48
2019-03-23T11:55:06.995Z,11.10
2019-03-23T11:57:43.475Z,10.43
2019-03-23T12:00:13.958Z,10.68
2019-03-23T12:02:43.260Z,10.30
2019-03-23T12:05:18.939Z,10.60
2019-03-23T12:07:48.188Z,10.65
2019-03-23T12:10:17.507Z,11.30
2019-03-23T12:12:53.534Z,10.08
2019-03-23T12:15:22.725Z,9.60
2019-03-23T12:17:52.062Z,10.28
2019-03-23T12:20:27.635Z,10.43
2019-03-23T12:22:57.000Z,9.33
2019-03-23T12:25:26.576Z,10.15
2019-03-23T12:28:02.711Z,9.35
2019-03-23T12:30:37.126Z,9.17
2019-03-23T12:33:14.391Z,10.20
2019-03-23T12:35:43.664Z,9.58
2019-03-23T12:38:13.020Z,10.20
2019-03-23T12:40:50.351Z,9.80
2019-03-23T12:43:19.596Z,9.95
2019-03-23T12:45:48.806Z,10.30
2019-03-23T12:48:25.225Z,9.53
2019-03-23T12:50:54.468Z,10.23
2019-03-23T12:53:43.265Z,10.88
2019-03-23T12:56:12.502Z,10.32
2019-03-23T12:58:41.903Z,10.38
2019-03-23T13:01:18.882Z,10.48
2019-03-23T13:03:48.833Z,11.37
2019-03-23T13:06:18.248Z,10.93
2019-03-23T13:08:55.213Z,10.53
2019-03-23T13:11:31.101Z,10.97
2019-03-23T13:13:55.394Z,11.70
2019-03-23T13:16:31.615Z,11.35
2019-03-23T13:19:00.855Z,12.03
2019-03-23T13:21:30.088Z,11.73
2019-03-23T13:24:06.362Z,12.60
2019-03-23T13:26:35.754Z,11.43
2019-03-23T13:29:05.078Z,12.33
2019-03-23T13:31:40.988Z,11.83
2019-03-23T13:34:11.206Z,12.03
2019-03-23T13:36:40.883Z,12.37
2019-03-23T13:39:16.897Z,12.28
2019-03-23T13:41:50.327Z,12.73
2019-03-23T13:44:20.065Z,12.68
2019-03-23T13:46:55.946Z,12.70
2019-03-23T13:49:26.265Z,12.20
2019-03-23T13:51:55.486Z,11.65
2019-03-23T13:54:37.694Z,11.48
2019-03-23T13:57:13.720Z,11.20
2019-03-23T13:59:49.963Z,10.90
2019-03-23T14:02:19.260Z,10.45
2019-03-23T14:04:50.253Z,10.87
2019-03-23T14:07:26.623Z,10.45
2019-03-23T14:09:56.649Z,9.90
2019-03-23T14:12:25.951Z,10.05
2019-03-23T14:15:01.312Z,9.58
2019-03-23T14:17:30.571Z,9.30
2019-03-23T14:20:00.327Z,7.87
2019-03-23T14:22:35.927Z,7.90
2019-03-23T14:25:05.842Z,8.00
2019-03-23T14:27:35.281Z,7.62
2019-03-23T14:30:14.985Z,7.47
2019-03-23T14:32:44.260Z,6.65
2019-03-23T14:35:13.583Z,6.97
2019-03-23T14:37:49.076Z,6.80
2019-03-23T14:40:18.289Z,7.07
2019-03-23T14:42:47.604Z,6.67
2019-03-23T14:45:23.460Z,6.65
2019-03-23T14:47:53.384Z,7.08
2019-03-23T14:50:22.696Z,7.70
2019-03-23T14:52:58.352Z,8.03
2019-03-23T14:55:47.386Z,6.78
2019-03-23T14:58:23.658Z,7.53
2019-03-23T15:00:52.881Z,6.87
2019-03-23T15:03:22.206Z,6.97
2019-03-23T15:05:58.404Z,7.80
2019-03-23T15:08:27.634Z,7.40
2019-03-23T15:10:56.879Z,7.87
2019-03-23T15:13:32.769Z,7.62
2019-03-23T15:16:02.033Z,7.58
2019-03-23T15:18:31.311Z,7.37
2019-03-23T15:21:07.550Z,7.17
2019-03-23T15:23:37.687Z,7.05
2019-03-23T15:26:07.903Z,7.55
2019-03-23T15:28:44.709Z,7.37
2019-03-23T15:31:14.504Z,7.10
2019-03-23T15:33:43.772Z,6.97
2019-03-23T15:36:19.634Z,6.97
2019-03-23T15:38:48.888Z,7.17
2019-03-23T15:41:18.088Z,6.47
2019-03-23T15:43:54.192Z,6.78
2019-03-23T15:46:25.479Z,7.08
2019-03-23T15:48:54.541Z,6.60
2019-03-23T15:51:31.594Z,7.15
2019-03-23T15:54:20.078Z,7.10
2019-03-23T15:57:02.852Z,7.78
2019-03-23T15:59:32.132Z,6.30
2019-03-23T16:02:01.358Z,5.42
2019-03-23T16:04:37.585Z,5.70
2019-03-23T16:07:06.895Z,5.00
2019-03-23T16:09:38.247Z,5.28
2019-03-23T16:12:14.858Z,5.10
2019-03-23T16:14:44.450Z,5.15
2019-03-23T16:17:13.772Z,5.30
2019-03-23T16:19:50.208Z,4.75
2019-03-23T16:22:20.235Z,4.47
2019-03-23T16:24:49.450Z,4.78
2019-03-23T16:27:25.509Z,4.40
2019-03-23T16:29:54.698Z,4.50
2019-03-23T16:32:25.651Z,4.53
2019-03-23T16:35:02.041Z,4.30
2019-03-23T16:37:32.394Z,4.60
2019-03-23T16:40:01.676Z,4.53
2019-03-23T16:42:45.240Z,4.10
2019-03-23T16:45:09.953Z,4.20
2019-03-23T16:47:47.193Z,4.50
2019-03-23T16:50:16.531Z,4.40
2019-03-23T16:52:45.817Z,4.25
2019-03-23T16:55:22.855Z,4.20
2019-03-23T16:58:04.744Z,4.10
2019-03-23T17:00:42.434Z,4.20
2019-03-23T17:03:11.674Z,3.70
2019-03-23T17:05:40.955Z,3.90
2019-03-23T17:08:16.337Z,3.75
2019-03-23T17:10:45.974Z,3.70
2019-03-23T17:13:15.197Z,4.00
2019-03-23T17:15:52.413Z,3.75
2019-03-23T17:18:21.713Z,3.62
2019-03-23T17:20:50.987Z,3.70
2019-03-23T17:23:26.447Z,3.77
2019-03-23T17:25:55.679Z,3.20
2019-03-23T17:28:24.938Z,3.70
2019-03-23T17:31:03.548Z,3.47
2019-03-23T17:33:32.825Z,3.58
2019-03-23T17:36:02.084Z,3.90
2019-03-23T17:38:38.245Z,4.10
2019-03-23T17:41:07.453Z,3.83
2019-03-23T17:43:36.749Z,3.52
2019-03-23T17:46:12.808Z,3.50
2019-03-23T17:48:42.047Z,4.35
2019-03-23T17:51:11.546Z,3.70
2019-03-23T17:53:47.644Z,3.75
2019-03-23T17:56:36.558Z,3.35
2019-03-23T17:59:20.729Z,3.87
2019-03-23T18:01:50.037Z,4.00
2019-03-23T18:04:19.280Z,3.60
2019-03-23T18:06:55.262Z,3.75
2019-03-23T18:09:24.485Z,3.70
2019-03-23T18:11:53.818Z,3.80
2019-03-23T18:14:30.550Z,4.42
2019-03-23T18:16:59.760Z,3.72
2019-03-23T18:19:49.021Z,4.03
2019-03-23T18:22:24.763Z,4.33
2019-03-23T18:25:00.344Z,4.10
2019-03-23T18:27:29.678Z,3.70
2019-03-23T18:29:58.900Z,3.40
2019-03-23T18:32:34.693Z,3.80
2019-03-23T18:35:04.765Z,3.95
2019-03-23T18:37:34.021Z,3.60
2019-03-23T18:40:11.843Z,3.80
2019-03-23T18:42:41.105Z,3.92
2019-03-23T18:45:10.400Z,3.77
2019-03-23T18:47:46.753Z,3.77
2019-03-23T18:50:16.018Z,3.83
2019-03-23T18:52:45.267Z,3.67
2019-03-23T18:55:21.548Z,4.20
2019-03-23T18:57:57.946Z,4.03
2019-03-23T19:00:44.336Z,3.75
2019-03-23T19:03:15.674Z,4.87
2019-03-23T19:05:44.957Z,4.50
2019-03-23T19:08:20.847Z,4.80
2019-03-23T19:10:50.112Z,5.03
2019-03-23T19:13:19.311Z,4.75
2019-03-23T19:15:54.661Z,5.23
2019-03-23T19:18:23.895Z,4.95
2019-03-23T19:20:53.132Z,4.72
2019-03-23T19:23:29.263Z,5.45
2019-03-23T19:25:58.517Z,5.72
2019-03-23T19:28:27.789Z,6.05
2019-03-23T19:31:03.974Z,5.60
2019-03-23T19:33:33.173Z,5.67
2019-03-23T19:36:02.410Z,5.65
2019-03-23T19:38:37.820Z,5.67
2019-03-23T19:41:07.092Z,5.47
2019-03-23T19:43:36.598Z,5.92
2019-03-23T19:46:12.270Z,6.28
2019-03-23T19:48:41.568Z,7.70
2019-03-23T19:51:10.881Z,6.22
2019-03-23T19:53:46.369Z,6.50
2019-03-23T19:56:21.788Z,6.75
2019-03-23T19:59:05.019Z,6.37
2019-03-23T20:01:40.840Z,6.42
2019-03-23T20:04:16.880Z,6.83
2019-03-23T20:06:46.118Z,6.40
2019-03-23T20:09:15.359Z,6.65
2019-03-23T20:11:51.723Z,6.45
2019-03-23T20:14:21.029Z,6.83
2019-03-23T20:16:50.298Z,7.20
2019-03-23T20:19:27.375Z,6.83
2019-03-23T20:21:56.589Z,6.60
2019-03-23T20:24:25.832Z,6.62
2019-03-23T20:27:01.409Z,6.60
2019-03-23T20:29:30.732Z,6.20
2019-03-23T20:32:00.377Z,6.05
2019-03-23T20:34:36.442Z,6.08
2019-03-23T20:37:08.127Z,5.80
2019-03-23T20:39:36.880Z,6.17
2019-03-23T20:42:13.123Z,6.25
2019-03-23T20:44:42.516Z,6.33
2019-03-23T20:47:13.864Z,6.05
2019-03-23T20:49:50.035Z,6.33
2019-03-23T20:52:21.043Z,6.37
2019-03-23T20:54:50.660Z,6.80
2019-03-23T20:57:36.612Z,6.45
2019-03-23T21:00:04.210Z,7.47
2019-03-23T21:02:46.405Z,6.75
2019-03-23T21:05:15.986Z,6.40
2019-03-23T21:07:45.699Z,6.70
2019-03-23T21:10:21.990Z,6.30
2019-03-23T21:12:51.348Z,6.62
2019-03-23T21:15:20.646Z,6.93
2019-03-23T21:17:56.060Z,6.15
2019-03-23T21:20:25.501Z,6.40
2019-03-23T21:22:54.806Z,6.93
2019-03-23T21:25:31.048Z,6.40
2019-03-23T21:28:02.971Z,7.22
2019-03-23T21:30:32.567Z,7.10
2019-03-23T21:33:08.625Z,6.90
2019-03-23T21:35:37.835Z,7.03
2019-03-23T21:38:07.180Z,7.07
2019-03-23T21:40:43.934Z,7.30
2019-03-23T21:43:13.188Z,8.00
2019-03-23T21:45:42.466Z,8.48
2019-03-23T21:48:18.024Z,7.45
2019-03-23T21:50:53.602Z,7.60
2019-03-23T21:53:29.690Z,7.85
2019-03-23T21:55:58.967Z,8.25
2019-03-23T21:58:47.767Z,7.95
2019-03-23T22:01:17.058Z,8.63
2019-03-23T22:03:59.072Z,8.43
2019-03-23T22:06:28.317Z,8.65
2019-03-23T22:08:57.536Z,9.05
2019-03-23T22:11:33.904Z,8.83
2019-03-23T22:14:03.228Z,8.95
2019-03-23T22:16:32.677Z,8.87
2019-03-23T22:19:08.320Z,9.50
2019-03-23T22:21:37.637Z,9.10
2019-03-23T22:24:06.980Z,9.73
2019-03-23T22:26:42.843Z,9.90
2019-03-23T22:29:12.118Z,9.10
2019-03-23T22:31:41.315Z,10.70
2019-03-23T22:34:17.547Z,9.38
2019-03-23T22:36:46.847Z,10.18
2019-03-23T22:39:16.073Z,10.58
2019-03-23T22:41:51.456Z,9.80
2019-03-23T22:44:20.733Z,9.98
2019-03-23T22:46:49.963Z,9.90
2019-03-23T22:49:26.138Z,10.33
2019-03-23T22:51:55.456Z,10.10
2019-03-23T22:54:24.740Z,10.03
2019-03-23T22:57:00.627Z,10.00
2019-03-23T22:59:39.318Z,11.03
2019-03-23T23:02:22.002Z,10.98
2019-03-23T23:04:58.151Z,10.85
2019-03-23T23:07:34.163Z,11.25
2019-03-23T23:10:04.137Z,11.28
2019-03-23T23:12:33.407Z,11.63
2019-03-23T23:15:09.504Z,11.05
2019-03-23T23:17:38.809Z,10.93
2019-03-23T23:20:08.592Z,11.33
2019-03-23T23:22:44.250Z,10.65
2019-03-23T23:25:13.688Z,10.60
2019-03-23T23:27:42.960Z,9.43
2019-03-23T23:30:22.222Z,9.93
2019-03-23T23:32:51.508Z,9.15
2019-03-23T23:35:20.776Z,8.93
2019-03-23T23:37:56.815Z,8.85
2019-03-23T23:40:26.084Z,8.38
2019-03-23T23:42:55.363Z,8.48
2019-03-23T23:45:31.033Z,8.90
2019-03-23T23:48:01.155Z,8.23
2019-03-23T23:50:30.411Z,7.90
2019-03-23T23:53:06.354Z,8.38
2019-03-23T23:55:35.563Z,8.35
2019-03-23T23:58:04.905Z,7.75
